Lytton, IA (50561)

6:42 PM CDT on July 27, 2016 (GMT -0500)
Lake City | | Change Station
Active Advisory: Special Statement

Elev 1191 ft 42.30 °N, 94.75 °W | Updated 27 seconds ago

Partly Cloudy
Partly Cloudy
81.5 °F
Feels Like 79 °F
N
4.3
Wind Variable Wind from WSW
Gusts 4.9 mph

Today
High -- | Low -- °F
--% Chance of Precip.
Yesterday
High -- | Low -- °F
Precip. -- in
Pressure 29.95 in
Visibility 10.0 miles
Clouds Few 4000 ft
Heat Index 79 °F
Dew Point 20 °F
Humidity 10%
Rainfall 0.00 in
Snow Depth Not available.
6:07 AM 8:43 PM
Last Quarter, 38% visible
METAR KSLB 272335Z AUTO 31007KT 10SM FEW040 28/21 A2995 RMK AO2
Pressure 29.95 in
Visibility 10.0 miles
Clouds Few 4000 ft
Heat Index 79 °F
Dew Point 20 °F
Humidity 10%
Rainfall 0.00 in
Snow Depth Not available.
6:07 AM 8:43 PM
Last Quarter, 38% visible
METAR KSLB 272335Z AUTO 31007KT 10SM FEW040 28/21 A2995 RMK AO2

10-Day Weather Forecast

Almanac

Astronomy

Jul. 27, 2016 Rise Set
Actual Time
Civil Twilight
Nautical Twilight
Astronomical Twilight
Moon
Length of Visible Light
Length of Day
Tomorrow will be .
, % of the Moon is Illuminated

Today's Extremes

State Highs State Lows

Community

WunderPhotos

Upload Photos

1,927,958 photos uploaded!

WunderBlog® & News

Nearby

Air Quality

  Air Quality AQ Index Pollutant
Not available.

Snow Depth

Station Depth Elevation

Earthquake Activity

City Distance Mag. Time & Date
Minimum magnitude displayed is 2.5.

Coastal Water Temperatures

Place Temperature

Stations

Nearby Weather Stations

Station Location Temp. Windchill Dew Point Humidity Wind Precip. Elev Updated Type
                   

Watches & Warnings

Special Statement
Issued: 5:02 PM CDT Jul. 27, 2016 – National Weather Service

... Conditions are favorable for funnel clouds...

Current atmospheric conditions support the development of funnel
clouds. Usually... these funnel clouds can form from showers and
weak thunderstorms. These funnels are normally brief... drop only
a few hundred feet from the cloud base... and rarely become a
tornado or cause damage. However... if one is spotted... please
immediately report it to the National Weather Service. If a Tornado
Warning would become necessary... take appropriate action.


Lee

502 PM CDT Wed Jul 27 2016

... Conditions are favorable for funnel clouds...

Current atmospheric conditions support the development of funnel
clouds. Usually... these funnel clouds can form from showers and
weak thunderstorms. These funnels are normally brief... drop only
a few hundred feet from the cloud base... and rarely become a
tornado or cause damage. However... if one is spotted... please
immediately report it to the National Weather Service. If a Tornado
Warning would become necessary... take appropriate action.


Lee